createdAt,value
2022-12-05T00:00:55.767Z,14.40
2022-12-05T00:03:22.852Z,13.07
2022-12-05T00:05:49.294Z,14.77
2022-12-05T00:08:15.645Z,13.93
2022-12-05T00:10:41.995Z,14.05
2022-12-05T00:13:08.635Z,14.88
2022-12-05T00:15:39.775Z,13.88
2022-12-05T00:18:06.471Z,13.75
2022-12-05T00:20:33.120Z,12.65
2022-12-05T00:22:59.827Z,14.77
2022-12-05T00:25:26.140Z,11.38
2022-12-05T00:27:52.516Z,14.23
2022-12-05T00:30:18.873Z,14.35
2022-12-05T00:32:45.317Z,14.40
2022-12-05T00:35:11.728Z,13.80
2022-12-05T00:37:38.025Z,14.38
2022-12-05T00:40:05.029Z,14.73
2022-12-05T00:42:31.317Z,14.00
2022-12-05T00:44:57.636Z,13.60
2022-12-05T00:47:23.905Z,13.57
2022-12-05T00:49:50.222Z,14.45
2022-12-05T00:52:16.514Z,14.00
2022-12-05T00:54:43.119Z,14.93
2022-12-05T00:57:09.439Z,15.02
2022-12-05T00:59:35.771Z,15.10
2022-12-05T01:02:02.079Z,14.55
2022-12-05T01:04:28.377Z,14.32
2022-12-05T01:06:56.615Z,14.63
2022-12-05T01:09:23.743Z,14.65
2022-12-05T01:11:50.323Z,13.60
2022-12-05T01:14:19.279Z,15.32
2022-12-05T01:16:47.248Z,15.05
2022-12-05T01:19:19.725Z,15.15
2022-12-05T01:21:47.705Z,15.35
2022-12-05T01:24:14.898Z,13.85
2022-12-05T01:26:44.092Z,15.00
2022-12-05T01:29:12.907Z,14.43
2022-12-05T01:31:39.465Z,15.40
2022-12-05T01:34:07.981Z,15.13
2022-12-05T01:36:34.362Z,15.43
2022-12-05T01:39:00.726Z,15.55
2022-12-05T01:41:31.210Z,15.65
2022-12-05T01:44:12.556Z,14.98
2022-12-05T01:46:50.185Z,15.63
2022-12-05T01:49:28.267Z,15.85
2022-12-05T01:52:12.858Z,14.02
2022-12-05T01:54:39.179Z,15.23
2022-12-05T01:57:11.601Z,13.88
2022-12-05T01:59:48.404Z,14.38
2022-12-05T02:02:14.822Z,14.73
2022-12-05T02:04:56.483Z,15.20
2022-12-05T02:07:23.056Z,14.77
2022-12-05T02:09:51.214Z,14.52
2022-12-05T02:12:19.786Z,15.05
2022-12-05T02:14:52.031Z,14.98
2022-12-05T02:17:30.385Z,15.35
2022-12-05T02:20:21.723Z,16.17
2022-12-05T02:23:06.962Z,14.68
2022-12-05T02:26:04.176Z,15.93
2022-12-05T02:28:58.383Z,15.70
2022-12-05T02:31:34.980Z,15.45
2022-12-05T02:34:25.024Z,13.10
2022-12-05T02:37:02.135Z,14.65
2022-12-05T02:39:46.449Z,15.52
2022-12-05T02:42:19.032Z,14.02
2022-12-05T02:44:56.221Z,14.90
2022-12-05T02:47:26.552Z,15.63
2022-12-05T02:49:54.752Z,15.63
2022-12-05T02:52:22.900Z,14.07
2022-12-05T02:54:51.620Z,15.50
2022-12-05T02:57:18.988Z,14.52
2022-12-05T02:59:45.289Z,13.95
2022-12-05T03:02:27.297Z,15.45
2022-12-05T03:05:04.482Z,13.65
2022-12-05T03:07:31.536Z,13.32
2022-12-05T03:10:04.398Z,14.95
2022-12-05T03:12:42.130Z,14.10
2022-12-05T03:15:16.609Z,13.98
2022-12-05T03:17:57.345Z,14.65
2022-12-05T03:20:34.497Z,13.20
2022-12-05T03:23:07.794Z,13.13
2022-12-05T03:25:46.193Z,14.50
2022-12-05T03:28:28.171Z,13.52
2022-12-05T03:30:58.200Z,13.70
2022-12-05T03:33:29.607Z,9.25
2022-12-05T03:36:09.262Z,12.30
2022-12-05T03:38:44.453Z,13.77
2022-12-05T03:41:32.709Z,13.05
2022-12-05T03:44:19.184Z,14.00
2022-12-05T03:46:58.125Z,14.05
2022-12-05T03:49:34.247Z,13.15
2022-12-05T03:52:06.601Z,14.23
2022-12-05T03:54:39.553Z,13.18
2022-12-05T03:57:16.364Z,12.18
2022-12-05T03:59:57.283Z,12.45
2022-12-05T04:02:32.996Z,10.18
2022-12-05T04:05:09.895Z,12.38
2022-12-05T04:07:39.394Z,9.98
2022-12-05T04:10:10.853Z,12.77
2022-12-05T04:12:41.023Z,12.63
2022-12-05T04:15:14.043Z,12.18
2022-12-05T04:17:53.920Z,12.90
2022-12-05T04:20:47.604Z,12.75
2022-12-05T04:23:14.390Z,12.65
2022-12-05T04:26:09.578Z,11.45
2022-12-05T04:28:44.896Z,11.35
2022-12-05T04:31:17.694Z,11.73
2022-12-05T04:33:56.245Z,10.68
2022-12-05T04:36:29.529Z,11.07
2022-12-05T04:39:17.570Z,12.05
2022-12-05T04:41:50.307Z,12.00
2022-12-05T04:44:21.800Z,11.43
2022-12-05T04:46:50.752Z,11.63
2022-12-05T04:49:22.478Z,11.88
2022-12-05T04:51:55.223Z,11.32
2022-12-05T04:54:27.833Z,12.23
2022-12-05T04:57:05.307Z,11.68
2022-12-05T04:59:31.675Z,12.02
2022-12-05T05:02:06.595Z,12.65
2022-12-05T05:04:46.825Z,11.48
2022-12-05T05:07:14.647Z,12.15
2022-12-05T05:09:41.804Z,12.10
2022-12-05T05:12:08.299Z,12.68
2022-12-05T05:14:34.897Z,10.88
2022-12-05T05:17:01.555Z,13.10
2022-12-05T05:19:28.066Z,11.98
2022-12-05T05:21:54.370Z,11.27
2022-12-05T05:24:23.716Z,11.20
2022-12-05T05:26:55.533Z,12.65
2022-12-05T05:29:23.515Z,11.25
2022-12-05T05:31:49.925Z,11.27
2022-12-05T05:34:16.315Z,11.93
2022-12-05T05:36:43.494Z,12.00
2022-12-05T05:39:12.837Z,12.30
2022-12-05T05:41:39.164Z,11.00
2022-12-05T05:44:05.672Z,11.40
2022-12-05T05:46:33.815Z,12.15
2022-12-05T05:49:00.538Z,12.35
2022-12-05T05:51:29.094Z,10.38
2022-12-05T05:53:56.780Z,11.07
2022-12-05T05:56:23.148Z,11.95
2022-12-05T05:58:56.296Z,11.60
2022-12-05T06:01:23.267Z,12.77
2022-12-05T06:03:53.416Z,10.80
2022-12-05T06:06:20.802Z,10.87
2022-12-05T06:08:47.310Z,11.13
2022-12-05T06:11:25.841Z,11.63
2022-12-05T06:13:58.005Z,10.93
2022-12-05T06:16:24.729Z,11.23
2022-12-05T06:18:52.689Z,11.52
2022-12-05T06:21:20.198Z,11.50
2022-12-05T06:23:46.751Z,11.77
2022-12-05T06:26:15.763Z,11.13
2022-12-05T06:28:43.076Z,11.38
2022-12-05T06:31:11.278Z,12.63
2022-12-05T06:33:38.240Z,11.73
2022-12-05T06:36:08.028Z,11.30
2022-12-05T06:38:39.067Z,11.32
2022-12-05T06:41:10.543Z,12.23
2022-12-05T06:43:36.876Z,11.85
2022-12-05T06:46:07.887Z,11.32
2022-12-05T06:51:01.534Z,11.40
2022-12-05T06:53:27.945Z,12.00
2022-12-05T06:56:02.722Z,11.07
2022-12-05T06:58:30.867Z,11.40
2022-12-05T07:01:15.973Z,11.50
2022-12-05T07:03:44.004Z,12.20
2022-12-05T07:06:11.106Z,12.23
2022-12-05T07:08:37.423Z,11.02
2022-12-05T07:11:04.051Z,12.60
2022-12-05T07:13:30.365Z,11.70
2022-12-05T07:15:58.807Z,12.35
2022-12-05T07:18:26.160Z,12.95
2022-12-05T07:21:11.681Z,12.23
2022-12-05T07:23:39.210Z,12.73
2022-12-05T07:26:06.710Z,11.20
2022-12-05T07:28:33.159Z,12.20
2022-12-05T07:31:06.080Z,12.00
2022-12-05T07:33:32.899Z,11.93
2022-12-05T07:36:05.386Z,11.88
2022-12-05T07:38:31.731Z,12.55
2022-12-05T07:40:58.083Z,12.73
2022-12-05T07:43:24.750Z,11.93
2022-12-05T07:45:51.117Z,11.57
2022-12-05T07:48:18.933Z,10.93
2022-12-05T07:50:45.428Z,11.73
2022-12-05T07:53:11.748Z,11.50
2022-12-05T07:55:38.953Z,11.18
2022-12-05T07:58:05.289Z,11.07
2022-12-05T08:00:31.598Z,10.30
2022-12-05T08:02:58.101Z,11.63
2022-12-05T08:05:24.484Z,11.70
2022-12-05T08:07:50.847Z,12.68
2022-12-05T08:10:17.182Z,11.35
2022-12-05T08:12:43.478Z,11.88
2022-12-05T08:15:10.020Z,11.45
2022-12-05T08:17:36.334Z,10.93
2022-12-05T08:20:02.982Z,10.32
2022-12-05T08:22:29.435Z,10.68
2022-12-05T08:24:56.478Z,11.18
2022-12-05T08:27:23.106Z,11.75
2022-12-05T08:29:49.468Z,11.15
2022-12-05T08:32:15.824Z,12.65
2022-12-05T08:34:42.317Z,11.00
2022-12-05T08:37:08.653Z,11.40
2022-12-05T08:39:38.712Z,10.32
2022-12-05T08:42:05.446Z,10.25
2022-12-05T08:44:31.778Z,8.93
2022-12-05T08:46:58.085Z,9.07
2022-12-05T08:49:24.417Z,9.48
2022-12-05T08:51:50.745Z,8.90
2022-12-05T08:54:17.397Z,8.60
2022-12-05T08:56:43.818Z,8.35
2022-12-05T08:59:10.332Z,8.30
2022-12-05T09:01:38.737Z,8.25
2022-12-05T09:04:06.382Z,7.50
2022-12-05T09:06:34.243Z,7.70
2022-12-05T09:09:04.531Z,7.80
2022-12-05T09:11:33.963Z,7.23
2022-12-05T09:14:01.437Z,7.38
2022-12-05T09:16:36.518Z,7.55
2022-12-05T09:19:04.569Z,7.30
2022-12-05T09:21:32.085Z,7.45
2022-12-05T09:23:59.935Z,6.97
2022-12-05T09:26:27.867Z,7.38
2022-12-05T09:28:54.545Z,6.28
2022-12-05T09:31:25.158Z,6.70
2022-12-05T09:33:52.289Z,6.18
2022-12-05T09:36:22.931Z,7.35
2022-12-05T09:38:49.874Z,5.22
2022-12-05T09:41:41.810Z,6.30
2022-12-05T09:44:19.299Z,6.38
2022-12-05T09:46:56.176Z,5.43
2022-12-05T09:49:24.309Z,6.65
2022-12-05T09:51:55.221Z,6.18
2022-12-05T09:54:22.501Z,5.75
2022-12-05T09:56:51.639Z,5.72
2022-12-05T09:59:20.417Z,5.80
2022-12-05T10:01:46.765Z,6.38
2022-12-05T10:04:28.521Z,5.95
2022-12-05T10:07:13.584Z,5.78
2022-12-05T10:10:20.278Z,6.35
2022-12-05T10:13:08.205Z,5.47
2022-12-05T10:15:57.635Z,5.85
2022-12-05T10:18:38.785Z,6.78
2022-12-05T10:21:30.285Z,5.97
2022-12-05T10:24:06.590Z,6.72
2022-12-05T10:26:40.777Z,6.15
2022-12-05T10:29:26.899Z,5.85
2022-12-05T10:32:02.485Z,5.32
2022-12-05T10:34:31.874Z,5.75
2022-12-05T10:37:21.426Z,5.13
2022-12-05T10:39:49.252Z,6.03
2022-12-05T10:42:19.984Z,4.93
2022-12-05T10:44:46.764Z,5.68
2022-12-05T10:47:13.245Z,5.00
2022-12-05T10:49:39.989Z,5.72
2022-12-05T10:52:06.659Z,6.22
2022-12-05T10:54:42.844Z,6.72
2022-12-05T10:57:22.305Z,5.97
2022-12-05T10:59:49.075Z,5.45
2022-12-05T11:02:26.748Z,6.30
2022-12-05T11:04:54.492Z,5.60
2022-12-05T11:07:26.655Z,6.20
2022-12-05T11:09:53.830Z,6.25
2022-12-05T11:12:22.726Z,6.22
2022-12-05T11:15:19.334Z,6.97
2022-12-05T11:17:46.433Z,6.07
2022-12-05T11:20:15.769Z,5.43
2022-12-05T11:22:45.780Z,5.97
2022-12-05T11:25:36.391Z,6.20
2022-12-05T11:28:17.993Z,6.75
2022-12-05T11:30:58.525Z,6.35
2022-12-05T11:33:29.644Z,7.38
2022-12-05T11:36:14.378Z,6.07
2022-12-05T11:38:42.266Z,5.90
2022-12-05T11:41:42.592Z,5.93
2022-12-05T11:44:35.096Z,6.45
2022-12-05T11:47:17.184Z,6.15
2022-12-05T11:50:17.561Z,5.90
2022-12-05T11:53:06.636Z,6.00
2022-12-05T11:55:50.584Z,6.03
2022-12-05T11:58:25.685Z,6.70
2022-12-05T12:01:10.401Z,5.05
2022-12-05T12:04:14.154Z,5.43
2022-12-05T12:06:49.229Z,6.35
2022-12-05T12:09:23.383Z,6.18
2022-12-05T12:12:09.719Z,5.22
2022-12-05T12:14:47.166Z,6.15
2022-12-05T12:17:30.323Z,5.50
2022-12-05T12:20:15.855Z,5.88
2022-12-05T12:23:04.879Z,5.32
2022-12-05T12:25:49.627Z,5.25
2022-12-05T12:28:41.125Z,6.75
2022-12-05T12:31:27.773Z,5.75
2022-12-05T12:34:10.283Z,5.40
2022-12-05T12:36:47.069Z,5.68
2022-12-05T12:39:48.100Z,4.95
2022-12-05T12:42:25.229Z,5.05
2022-12-05T12:45:25.543Z,5.25
2022-12-05T12:47:54.829Z,5.28
2022-12-05T12:50:28.501Z,4.82
2022-12-05T12:53:09.121Z,4.18
2022-12-05T12:56:01.957Z,5.00
2022-12-05T12:58:53.197Z,5.93
2022-12-05T13:04:02.379Z,6.93
2022-12-05T13:06:47.375Z,6.35
2022-12-05T13:09:29.498Z,6.90
2022-12-05T13:12:01.439Z,5.80
2022-12-05T13:14:30.380Z,8.13
2022-12-05T13:16:59.508Z,7.53
2022-12-05T13:19:37.282Z,9.43
2022-12-05T13:22:05.928Z,7.30
2022-12-05T13:24:32.427Z,8.60
2022-12-05T13:27:02.148Z,8.30
2022-12-05T13:29:39.838Z,11.00
2022-12-05T13:32:07.047Z,11.07
2022-12-05T13:34:47.332Z,10.82
2022-12-05T13:37:47.472Z,11.65
2022-12-05T13:40:43.833Z,14.80
2022-12-05T13:43:13.065Z,14.95
2022-12-05T13:45:40.854Z,13.70
2022-12-05T13:48:10.242Z,13.35
2022-12-05T13:50:43.102Z,12.52
2022-12-05T13:53:39.206Z,12.68
2022-12-05T13:56:07.488Z,11.68
2022-12-05T13:58:43.230Z,12.80
2022-12-05T14:01:25.083Z,13.25
2022-12-05T14:03:51.370Z,11.65
2022-12-05T14:06:49.987Z,12.27
2022-12-05T14:09:19.088Z,10.95
2022-12-05T14:12:10.652Z,9.23
2022-12-05T14:14:55.192Z,8.73
2022-12-05T14:17:24.066Z,10.95
2022-12-05T14:20:00.058Z,10.57
2022-12-05T14:22:40.873Z,10.82
2022-12-05T14:25:35.436Z,8.55
2022-12-05T14:28:10.905Z,8.98
2022-12-05T14:30:59.104Z,8.43
2022-12-05T14:33:25.683Z,9.75
2022-12-05T14:35:53.366Z,9.25
2022-12-05T14:38:31.761Z,9.65
2022-12-05T14:41:17.273Z,8.90
2022-12-05T14:43:44.055Z,9.05
2022-12-05T14:46:30.601Z,9.20
2022-12-05T14:48:57.359Z,7.95
2022-12-05T14:51:29.807Z,8.55
2022-12-05T14:54:18.399Z,8.32
2022-12-05T14:56:50.056Z,7.80
2022-12-05T14:59:26.549Z,9.02
2022-12-05T15:01:59.038Z,7.65
2022-12-05T15:04:49.950Z,9.18
2022-12-05T15:07:19.427Z,7.78
2022-12-05T15:09:54.521Z,8.18
2022-12-05T15:12:33.915Z,8.65
2022-12-05T15:15:28.413Z,9.30
2022-12-05T15:18:02.271Z,8.13
2022-12-05T15:20:52.905Z,7.60
2022-12-05T15:23:38.435Z,6.78
2022-12-05T15:26:44.900Z,7.00
2022-12-05T15:29:09.916Z,6.65
2022-12-05T15:31:44.130Z,7.38
2022-12-05T15:34:17.378Z,6.50
2022-12-05T15:36:50.868Z,7.05
2022-12-05T15:39:26.128Z,6.43
2022-12-05T15:41:53.781Z,6.55
2022-12-05T15:44:27.086Z,6.20
2022-12-05T15:46:56.258Z,5.88
2022-12-05T15:49:25.070Z,6.40
2022-12-05T15:51:58.295Z,6.50
2022-12-05T15:54:38.139Z,6.18
2022-12-05T15:57:12.513Z,6.57
2022-12-05T15:59:45.775Z,5.82
2022-12-05T16:02:47.612Z,5.95
2022-12-05T16:05:21.143Z,5.45
2022-12-05T16:07:49.605Z,5.55
2022-12-05T16:10:17.898Z,5.80
2022-12-05T16:12:44.244Z,5.38
2022-12-05T16:15:17.355Z,5.78
2022-12-05T16:17:47.152Z,4.88
2022-12-05T16:20:16.312Z,4.95
2022-12-05T16:22:51.299Z,3.95
2022-12-05T16:25:23.520Z,4.28
2022-12-05T16:28:00.164Z,4.30
2022-12-05T16:30:27.742Z,3.22
2022-12-05T16:33:03.477Z,3.25
2022-12-05T16:35:36.522Z,3.83
2022-12-05T16:38:29.660Z,3.78
2022-12-05T16:41:02.625Z,3.60
2022-12-05T16:43:45.464Z,4.03
2022-12-05T16:46:12.840Z,3.50
2022-12-05T16:48:47.540Z,3.78
2022-12-05T16:51:14.093Z,3.67
2022-12-05T16:53:42.982Z,4.03
2022-12-05T16:56:20.265Z,3.50
2022-12-05T16:58:47.064Z,3.58
2022-12-05T17:01:19.027Z,3.55
2022-12-05T17:03:45.779Z,3.92
2022-12-05T17:06:12.524Z,3.10
2022-12-05T17:08:38.890Z,2.95
2022-12-05T17:11:08.097Z,3.47
2022-12-05T17:13:34.418Z,3.58
2022-12-05T17:16:00.907Z,3.72
2022-12-05T17:18:31.440Z,4.20
2022-12-05T17:21:01.033Z,4.50
2022-12-05T17:23:27.387Z,4.45
2022-12-05T17:25:56.555Z,3.35
2022-12-05T17:28:23.875Z,3.78
2022-12-05T17:30:50.508Z,4.32
2022-12-05T17:33:19.207Z,3.88
2022-12-05T17:35:45.566Z,3.95
2022-12-05T17:38:11.999Z,4.07
2022-12-05T17:40:39.237Z,4.63
2022-12-05T17:43:06.268Z,4.47
2022-12-05T17:45:33.337Z,4.35
2022-12-05T17:47:59.857Z,4.38
2022-12-05T17:50:27.259Z,3.83
2022-12-05T17:52:56.497Z,3.35
2022-12-05T17:55:28.360Z,4.03
2022-12-05T17:57:55.352Z,3.88
2022-12-05T18:00:23.717Z,8.55
2022-12-05T18:02:50.596Z,3.30
2022-12-05T18:05:17.289Z,4.13
2022-12-05T18:07:45.140Z,3.67
2022-12-05T18:10:17.674Z,3.70
2022-12-05T18:12:44.011Z,3.83
2022-12-05T18:15:10.999Z,4.93
2022-12-05T18:17:37.368Z,4.15
2022-12-05T18:20:04.615Z,3.72
2022-12-05T18:22:31.166Z,4.03
2022-12-05T18:24:58.367Z,4.25
2022-12-05T18:27:25.152Z,4.30
2022-12-05T18:29:51.766Z,4.55
2022-12-05T18:32:19.187Z,4.00
2022-12-05T18:34:45.593Z,4.18
2022-12-05T18:37:12.711Z,3.95
2022-12-05T18:39:39.081Z,3.75
2022-12-05T18:42:09.006Z,3.78
2022-12-05T18:45:01.140Z,17.90
2022-12-05T18:47:27.936Z,24.63
2022-12-05T18:49:54.219Z,12.40
2022-12-05T18:52:20.986Z,16.67
2022-12-05T18:54:57.674Z,4.57
2022-12-05T18:57:33.643Z,4.60
2022-12-05T19:00:00.478Z,4.63
2022-12-05T19:02:27.038Z,5.15
2022-12-05T19:04:53.674Z,4.85
2022-12-05T19:07:20.015Z,5.10
2022-12-05T19:09:46.464Z,4.45
2022-12-05T19:12:12.828Z,3.72
2022-12-05T19:14:39.156Z,3.40
2022-12-05T19:17:05.945Z,3.60
2022-12-05T19:19:32.325Z,3.70
2022-12-05T19:21:59.130Z,3.70
2022-12-05T19:24:25.743Z,4.30
2022-12-05T19:26:52.073Z,3.63
2022-12-05T19:29:18.472Z,5.20
2022-12-05T19:31:45.195Z,4.15
2022-12-05T19:34:11.988Z,4.65
2022-12-05T19:36:41.093Z,4.28
2022-12-05T19:39:10.987Z,4.05
2022-12-05T19:41:37.584Z,4.70
2022-12-05T19:44:05.004Z,5.13
2022-12-05T19:46:32.996Z,4.53
2022-12-05T19:49:02.413Z,3.90
2022-12-05T19:51:30.089Z,3.60
2022-12-05T19:56:44.492Z,3.78
2022-12-05T19:59:15.475Z,4.05
2022-12-05T20:01:41.844Z,4.38
2022-12-05T20:04:13.801Z,3.83
2022-12-05T20:06:44.710Z,3.75
2022-12-05T20:09:12.748Z,3.80
2022-12-05T20:11:41.722Z,4.30
2022-12-05T20:14:10.426Z,3.85
2022-12-05T20:16:36.946Z,3.88
2022-12-05T20:19:04.628Z,4.38
2022-12-05T20:21:32.687Z,4.32
2022-12-05T20:24:00.759Z,4.13
2022-12-05T20:26:30.152Z,4.30
2022-12-05T20:28:58.562Z,3.88
2022-12-05T20:31:31.587Z,3.92
2022-12-05T20:33:58.080Z,4.32
2022-12-05T20:36:29.672Z,4.40
2022-12-05T20:39:15.925Z,4.43
2022-12-05T20:41:42.904Z,4.00
2022-12-05T20:44:11.797Z,4.20
2022-12-05T20:46:38.187Z,3.63
2022-12-05T20:49:04.542Z,3.97
2022-12-05T20:51:32.573Z,3.78
2022-12-05T20:54:00.949Z,3.78
2022-12-05T20:56:29.638Z,3.67
2022-12-05T20:58:59.173Z,4.03
2022-12-05T21:01:27.830Z,3.38
2022-12-05T21:03:55.552Z,3.70
2022-12-05T21:06:33.167Z,3.60
2022-12-05T21:09:00.554Z,2.83
2022-12-05T21:11:28.626Z,4.00
2022-12-05T21:13:56.931Z,3.50
2022-12-05T21:16:24.000Z,3.97
2022-12-05T21:18:51.517Z,3.85
2022-12-05T21:21:20.541Z,3.92
2022-12-05T21:23:55.298Z,3.80
2022-12-05T21:26:22.914Z,3.75
2022-12-05T21:28:49.461Z,3.58
2022-12-05T21:31:21.262Z,4.03
2022-12-05T21:33:50.999Z,3.45
2022-12-05T21:36:30.495Z,3.65
2022-12-05T21:38:57.242Z,3.30
2022-12-05T21:41:24.783Z,3.92
2022-12-05T21:43:54.922Z,3.60
2022-12-05T21:46:22.283Z,3.70
2022-12-05T21:48:48.771Z,3.13
2022-12-05T21:51:15.380Z,3.58
2022-12-05T21:53:41.969Z,3.42
2022-12-05T21:56:10.903Z,3.88
2022-12-05T21:58:42.171Z,3.22
2022-12-05T22:01:10.212Z,3.70
2022-12-05T22:03:36.553Z,3.28
2022-12-05T22:06:07.638Z,3.78
2022-12-05T22:11:12.845Z,3.40
2022-12-05T22:13:39.563Z,3.60
2022-12-05T22:16:07.004Z,3.13
2022-12-05T22:18:34.134Z,3.70
2022-12-05T22:21:05.560Z,4.03
2022-12-05T22:23:33.006Z,3.47
2022-12-05T22:26:07.675Z,3.63
2022-12-05T22:28:34.790Z,3.53
2022-12-05T22:31:04.931Z,3.72
2022-12-05T22:33:31.752Z,3.50
2022-12-05T22:35:59.812Z,3.35
2022-12-05T22:38:28.668Z,3.35
2022-12-05T22:41:00.072Z,3.38
2022-12-05T22:43:27.725Z,3.60
2022-12-05T22:45:54.405Z,3.50
2022-12-05T22:48:21.417Z,3.28
2022-12-05T22:50:53.629Z,3.42
2022-12-05T22:53:24.140Z,3.08
2022-12-05T22:55:51.406Z,3.53
2022-12-05T22:58:18.015Z,3.80
2022-12-05T23:00:45.986Z,3.53
2022-12-05T23:03:12.732Z,3.95
2022-12-05T23:05:41.643Z,3.60
2022-12-05T23:08:08.815Z,3.78
2022-12-05T23:10:35.221Z,4.00
2022-12-05T23:13:01.507Z,3.88
2022-12-05T23:15:27.851Z,3.33
2022-12-05T23:17:55.219Z,3.30
2022-12-05T23:20:21.941Z,4.25
2022-12-05T23:22:48.263Z,4.07
2022-12-05T23:25:14.755Z,3.65
2022-12-05T23:27:41.084Z,3.90
2022-12-05T23:30:08.082Z,3.58
2022-12-05T23:32:34.380Z,3.28
2022-12-05T23:35:00.656Z,3.45
2022-12-05T23:37:27.009Z,4.05
2022-12-05T23:39:53.310Z,3.97
2022-12-05T23:42:19.643Z,3.78
2022-12-05T23:44:46.045Z,3.30
2022-12-05T23:47:12.739Z,3.58
2022-12-05T23:49:39.058Z,3.58
2022-12-05T23:52:05.639Z,3.53
2022-12-05T23:54:31.954Z,3.20
2022-12-05T23:56:58.259Z,3.17
2022-12-05T23:59:24.562Z,3.25
